QUAO2: Spring River Near Quapaw, OK

Data processed at Thu Mar 08 2018 23:21


All information presented herein is the property of the government of the United States of America and may be revised or deleted at any time without prior notice.
Dissemination of this information without the expressed written consent of the Public Affairs Office, Tulsa District U.S. Army Corps of Engineers is strictly prohibited.
These data are gathered electronically and, as presented, have not undergone any form of quality control. These data are not guaranteed to be valid or correct.
Go to home page.
Go to station list.

Upstream stations:

Downstream station:
Previous Day
Next Day
Current Day
    
SHEF ID:       QUAO2     Spring River near Quapaw, OK
STATION TYPE:  

               PRECIP     STAGE  STAGE(2)  RIV-FLOW  BAT-LOAD
                   in        ft        ft       cfs      volt
              Ccp-Rev   Ccp-Rev   Ccp-Rev   Ccp-Rev   Ccp-Rev
(US/Central)
03/06 00:00      0.00      8.87      8.90      2906     12.49
03/06 01:00      0.00      8.86      8.90      2891     12.41
03/06 02:00      0.00      8.86      8.89      2891     12.41
03/06 03:00      0.00      8.86      8.89      2891     12.41
03/06 04:00      0.00      8.85      8.88      2876     12.33
03/06 05:00      0.00      8.84      8.88      2862     12.41
03/06 06:00      0.00      8.84      8.88      2862     12.33
03/06 07:00      0.00      8.83      8.87      2847     12.33
03/06 08:00      0.00      8.83      8.86      2847     12.33
03/06 09:00      0.00      8.82      8.83      2832     12.57
03/06 10:00      0.00      8.81      8.80      2818     13.21
03/06 11:00      0.00      8.82      8.79      2832     13.29
03/06 12:00      0.00      8.79      8.75      2789     13.29
03/06 13:00      0.00      8.77      8.72      2760     13.29
03/06 14:00      0.00      8.74      8.71      2717     13.44
03/06 15:00      0.00      8.74      8.69      2717     13.44
03/06 16:00      0.00      8.73      8.71      2702     13.21
03/06 17:00      0.00      8.73      8.70      2702     13.13
03/06 18:00      0.00      8.73      8.70      2702     13.13
03/06 19:00      0.00      8.72      8.73      2688     12.81
03/06 20:00      0.00      8.71      8.73      2674     12.65
03/06 21:00      0.00      8.72      8.75      2688     12.57
03/06 22:00      0.00      8.72      8.73      2688     12.49
03/06 23:00      0.00      8.71      8.64      2674     12.49